sensor_id;sensor_type;location;lat;lon;timestamp;P1;durP1;ratioP1;P2;durP2;ratioP2
21558;SDS011;10940;48.890;8.240;2022-08-19T00:02:04;5.43;;;4.60;;
21558;SDS011;10940;48.890;8.240;2022-08-19T00:04:31;5.30;;;4.00;;
21558;SDS011;10940;48.890;8.240;2022-08-19T00:07:01;4.73;;;4.03;;
21558;SDS011;10940;48.890;8.240;2022-08-19T00:09:28;7.43;;;4.67;;
21558;SDS011;10940;48.890;8.240;2022-08-19T00:11:54;5.50;;;4.60;;
21558;SDS011;10940;48.890;8.240;2022-08-19T00:14:21;5.40;;;4.47;;
21558;SDS011;10940;48.890;8.240;2022-08-19T00:16:49;5.67;;;4.80;;
21558;SDS011;10940;48.890;8.240;2022-08-19T00:19:16;4.20;;;3.80;;
21558;SDS011;10940;48.890;8.240;2022-08-19T00:21:42;4.93;;;4.23;;
21558;SDS011;10940;48.890;8.240;2022-08-19T00:24:09;4.40;;;3.97;;
21558;SDS011;10940;48.890;8.240;2022-08-19T00:26:36;7.40;;;5.13;;
21558;SDS011;10940;48.890;8.240;2022-08-19T00:29:04;8.80;;;5.43;;
21558;SDS011;10940;48.890;8.240;2022-08-19T00:31:31;5.13;;;4.63;;
21558;SDS011;10940;48.890;8.240;2022-08-19T00:33:56;7.87;;;4.53;;
21558;SDS011;10940;48.890;8.240;2022-08-19T00:36:22;5.90;;;5.20;;
21558;SDS011;10940;48.890;8.240;2022-08-19T00:38:48;7.07;;;4.83;;
21558;SDS011;10940;48.890;8.240;2022-08-19T00:41:17;7.33;;;6.13;;
21558;SDS011;10940;48.890;8.240;2022-08-19T00:44:02;6.77;;;5.77;;
21558;SDS011;10940;48.890;8.240;2022-08-19T00:46:31;6.93;;;5.30;;
21558;SDS011;10940;48.890;8.240;2022-08-19T00:48:58;7.13;;;5.43;;
21558;SDS011;10940;48.890;8.240;2022-08-19T00:51:27;8.60;;;6.10;;
21558;SDS011;10940;48.890;8.240;2022-08-19T00:53:55;8.30;;;5.53;;
21558;SDS011;10940;48.890;8.240;2022-08-19T00:56:23;9.47;;;5.83;;
21558;SDS011;10940;48.890;8.240;2022-08-19T00:58:51;9.30;;;5.10;;
21558;SDS011;10940;48.890;8.240;2022-08-19T01:01:17;8.17;;;5.13;;
21558;SDS011;10940;48.890;8.240;2022-08-19T01:03:42;8.60;;;5.20;;
21558;SDS011;10940;48.890;8.240;2022-08-19T01:06:08;6.77;;;4.40;;
21558;SDS011;10940;48.890;8.240;2022-08-19T01:08:33;7.40;;;5.10;;
21558;SDS011;10940;48.890;8.240;2022-08-19T01:10:59;7.77;;;5.33;;
21558;SDS011;10940;48.890;8.240;2022-08-19T01:13:28;8.07;;;5.67;;
21558;SDS011;10940;48.890;8.240;2022-08-19T01:15:58;4.93;;;4.43;;
21558;SDS011;10940;48.890;8.240;2022-08-19T01:18:27;6.17;;;4.90;;
21558;SDS011;10940;48.890;8.240;2022-08-19T01:20:54;5.10;;;4.50;;
21558;SDS011;10940;48.890;8.240;2022-08-19T01:23:22;7.50;;;5.47;;
21558;SDS011;10940;48.890;8.240;2022-08-19T01:26:07;6.13;;;4.40;;
21558;SDS011;10940;48.890;8.240;2022-08-19T01:28:35;5.67;;;5.07;;
21558;SDS011;10940;48.890;8.240;2022-08-19T01:31:02;12.00;;;6.13;;
21558;SDS011;10940;48.890;8.240;2022-08-19T01:33:27;10.10;;;5.13;;
21558;SDS011;10940;48.890;8.240;2022-08-19T01:36:03;7.97;;;5.37;;
21558;SDS011;10940;48.890;8.240;2022-08-19T01:38:38;8.57;;;5.20;;
21558;SDS011;10940;48.890;8.240;2022-08-19T01:41:08;6.80;;;5.73;;
21558;SDS011;10940;48.890;8.240;2022-08-19T01:43:37;9.00;;;5.53;;
21558;SDS011;10940;48.890;8.240;2022-08-19T01:46:03;5.23;;;4.30;;
21558;SDS011;10940;48.890;8.240;2022-08-19T01:48:33;6.47;;;5.33;;
21558;SDS011;10940;48.890;8.240;2022-08-19T01:51:00;5.97;;;5.27;;
21558;SDS011;10940;48.890;8.240;2022-08-19T01:53:26;7.33;;;5.83;;
21558;SDS011;10940;48.890;8.240;2022-08-19T01:55:52;9.50;;;6.63;;
21558;SDS011;10940;48.890;8.240;2022-08-19T01:58:21;8.87;;;5.57;;
21558;SDS011;10940;48.890;8.240;2022-08-19T02:00:49;7.90;;;6.30;;
21558;SDS011;10940;48.890;8.240;2022-08-19T02:03:15;10.47;;;5.37;;
21558;SDS011;10940;48.890;8.240;2022-08-19T02:05:41;7.10;;;5.80;;
21558;SDS011;10940;48.890;8.240;2022-08-19T02:08:08;8.67;;;5.93;;
21558;SDS011;10940;48.890;8.240;2022-08-19T02:10:37;10.53;;;6.50;;
21558;SDS011;10940;48.890;8.240;2022-08-19T02:13:06;8.20;;;6.40;;
21558;SDS011;10940;48.890;8.240;2022-08-19T02:15:31;7.53;;;4.90;;
21558;SDS011;10940;48.890;8.240;2022-08-19T02:17:57;7.13;;;5.23;;
21558;SDS011;10940;48.890;8.240;2022-08-19T02:20:23;6.70;;;5.60;;
21558;SDS011;10940;48.890;8.240;2022-08-19T02:22:49;8.00;;;4.37;;
21558;SDS011;10940;48.890;8.240;2022-08-19T02:25:14;6.03;;;5.43;;
21558;SDS011;10940;48.890;8.240;2022-08-19T02:27:40;8.50;;;5.17;;
21558;SDS011;10940;48.890;8.240;2022-08-19T02:30:07;6.80;;;5.60;;
21558;SDS011;10940;48.890;8.240;2022-08-19T02:32:35;4.70;;;4.23;;
21558;SDS011;10940;48.890;8.240;2022-08-19T02:35:01;6.03;;;3.83;;
21558;SDS011;10940;48.890;8.240;2022-08-19T02:37:28;9.10;;;5.97;;
21558;SDS011;10940;48.890;8.240;2022-08-19T02:40:12;11.73;;;5.53;;
21558;SDS011;10940;48.890;8.240;2022-08-19T02:42:38;9.90;;;5.77;;
21558;SDS011;10940;48.890;8.240;2022-08-19T02:45:05;6.43;;;5.07;;
21558;SDS011;10940;48.890;8.240;2022-08-19T02:47:32;7.47;;;5.77;;
21558;SDS011;10940;48.890;8.240;2022-08-19T02:50:00;5.20;;;4.63;;
21558;SDS011;10940;48.890;8.240;2022-08-19T02:52:27;5.90;;;5.07;;
21558;SDS011;10940;48.890;8.240;2022-08-19T02:54:53;7.57;;;5.50;;
21558;SDS011;10940;48.890;8.240;2022-08-19T02:57:21;8.70;;;6.13;;
21558;SDS011;10940;48.890;8.240;2022-08-19T02:59:47;6.50;;;4.30;;
21558;SDS011;10940;48.890;8.240;2022-08-19T03:02:13;9.57;;;5.97;;
21558;SDS011;10940;48.890;8.240;2022-08-19T03:04:38;7.23;;;6.20;;
21558;SDS011;10940;48.890;8.240;2022-08-19T03:07:04;6.50;;;5.50;;
21558;SDS011;10940;48.890;8.240;2022-08-19T03:09:30;8.30;;;6.20;;
21558;SDS011;10940;48.890;8.240;2022-08-19T03:11:55;7.13;;;5.33;;
21558;SDS011;10940;48.890;8.240;2022-08-19T03:14:21;6.83;;;5.17;;
21558;SDS011;10940;48.890;8.240;2022-08-19T03:16:49;10.93;;;5.70;;
21558;SDS011;10940;48.890;8.240;2022-08-19T03:19:16;8.27;;;6.07;;
21558;SDS011;10940;48.890;8.240;2022-08-19T03:21:43;7.90;;;6.70;;
21558;SDS011;10940;48.890;8.240;2022-08-19T03:24:09;5.43;;;4.90;;
21558;SDS011;10940;48.890;8.240;2022-08-19T03:26:43;5.07;;;4.50;;
21558;SDS011;10940;48.890;8.240;2022-08-19T03:29:10;5.67;;;5.17;;
21558;SDS011;10940;48.890;8.240;2022-08-19T03:31:37;8.63;;;7.27;;
21558;SDS011;10940;48.890;8.240;2022-08-19T03:34:04;7.57;;;6.00;;
21558;SDS011;10940;48.890;8.240;2022-08-19T03:36:30;8.30;;;5.87;;
21558;SDS011;10940;48.890;8.240;2022-08-19T03:38:56;7.33;;;5.23;;
21558;SDS011;10940;48.890;8.240;2022-08-19T03:41:24;11.73;;;6.77;;
21558;SDS011;10940;48.890;8.240;2022-08-19T03:43:53;10.33;;;6.53;;
21558;SDS011;10940;48.890;8.240;2022-08-19T03:46:20;6.03;;;5.27;;
21558;SDS011;10940;48.890;8.240;2022-08-19T03:48:51;7.77;;;6.87;;
21558;SDS011;10940;48.890;8.240;2022-08-19T03:51:24;6.63;;;5.03;;
21558;SDS011;10940;48.890;8.240;2022-08-19T03:53:53;9.37;;;6.50;;
21558;SDS011;10940;48.890;8.240;2022-08-19T03:56:20;10.97;;;7.23;;
21558;SDS011;10940;48.890;8.240;2022-08-19T03:58:47;11.47;;;6.33;;
21558;SDS011;10940;48.890;8.240;2022-08-19T04:01:14;10.53;;;6.37;;
21558;SDS011;10940;48.890;8.240;2022-08-19T04:03:43;8.67;;;6.10;;
21558;SDS011;10940;48.890;8.240;2022-08-19T04:08:41;7.03;;;5.50;;
21558;SDS011;10940;48.890;8.240;2022-08-19T04:11:08;10.73;;;6.50;;
21558;SDS011;10940;48.890;8.240;2022-08-19T04:13:35;8.73;;;5.50;;
21558;SDS011;10940;48.890;8.240;2022-08-19T04:16:02;7.40;;;5.90;;
21558;SDS011;10940;48.890;8.240;2022-08-19T04:18:29;6.97;;;5.60;;
21558;SDS011;10940;48.890;8.240;2022-08-19T04:20:55;6.87;;;6.13;;
21558;SDS011;10940;48.890;8.240;2022-08-19T04:23:22;6.60;;;5.80;;
21558;SDS011;10940;48.890;8.240;2022-08-19T04:25:47;9.37;;;6.27;;
21558;SDS011;10940;48.890;8.240;2022-08-19T04:28:13;20.17;;;8.10;;
21558;SDS011;10940;48.890;8.240;2022-08-19T04:30:43;6.73;;;5.50;;
21558;SDS011;10940;48.890;8.240;2022-08-19T04:33:12;7.33;;;6.10;;
21558;SDS011;10940;48.890;8.240;2022-08-19T04:35:40;7.87;;;6.00;;
21558;SDS011;10940;48.890;8.240;2022-08-19T04:38:08;8.80;;;6.47;;
21558;SDS011;10940;48.890;8.240;2022-08-19T04:40:39;11.67;;;4.87;;
21558;SDS011;10940;48.890;8.240;2022-08-19T04:43:24;7.37;;;5.10;;
21558;SDS011;10940;48.890;8.240;2022-08-19T04:45:50;8.33;;;5.70;;
21558;SDS011;10940;48.890;8.240;2022-08-19T04:48:16;9.60;;;6.33;;
21558;SDS011;10940;48.890;8.240;2022-08-19T04:50:54;6.57;;;5.10;;
21558;SDS011;10940;48.890;8.240;2022-08-19T04:53:27;9.17;;;6.50;;
21558;SDS011;10940;48.890;8.240;2022-08-19T04:55:58;5.93;;;5.33;;
21558;SDS011;10940;48.890;8.240;2022-08-19T04:58:25;13.43;;;7.37;;
21558;SDS011;10940;48.890;8.240;2022-08-19T05:00:52;6.10;;;4.37;;
21558;SDS011;10940;48.890;8.240;2022-08-19T05:03:18;9.13;;;5.73;;
21558;SDS011;10940;48.890;8.240;2022-08-19T05:05:46;12.97;;;5.57;;
21558;SDS011;10940;48.890;8.240;2022-08-19T05:08:16;10.67;;;6.70;;
21558;SDS011;10940;48.890;8.240;2022-08-19T05:10:47;7.93;;;5.67;;
21558;SDS011;10940;48.890;8.240;2022-08-19T05:13:14;9.63;;;6.67;;
21558;SDS011;10940;48.890;8.240;2022-08-19T05:15:42;5.80;;;5.23;;
21558;SDS011;10940;48.890;8.240;2022-08-19T05:18:08;12.43;;;6.07;;
21558;SDS011;10940;48.890;8.240;2022-08-19T05:20:53;9.20;;;6.30;;
21558;SDS011;10940;48.890;8.240;2022-08-19T05:23:37;10.10;;;6.80;;
21558;SDS011;10940;48.890;8.240;2022-08-19T05:26:03;13.50;;;6.33;;
21558;SDS011;10940;48.890;8.240;2022-08-19T05:28:29;8.43;;;6.07;;
21558;SDS011;10940;48.890;8.240;2022-08-19T05:30:55;7.13;;;6.17;;
21558;SDS011;10940;48.890;8.240;2022-08-19T05:33:21;9.37;;;7.07;;
21558;SDS011;10940;48.890;8.240;2022-08-19T05:35:47;8.23;;;5.83;;
21558;SDS011;10940;48.890;8.240;2022-08-19T05:38:14;10.83;;;5.73;;
21558;SDS011;10940;48.890;8.240;2022-08-19T05:40:41;6.43;;;5.57;;
21558;SDS011;10940;48.890;8.240;2022-08-19T05:43:14;10.73;;;5.77;;
21558;SDS011;10940;48.890;8.240;2022-08-19T05:45:43;7.10;;;5.70;;
21558;SDS011;10940;48.890;8.240;2022-08-19T05:48:09;8.87;;;5.23;;
21558;SDS011;10940;48.890;8.240;2022-08-19T05:50:37;8.03;;;5.70;;
21558;SDS011;10940;48.890;8.240;2022-08-19T05:53:04;8.67;;;5.70;;
21558;SDS011;10940;48.890;8.240;2022-08-19T05:55:30;7.97;;;6.13;;
21558;SDS011;10940;48.890;8.240;2022-08-19T05:57:56;11.83;;;5.53;;
21558;SDS011;10940;48.890;8.240;2022-08-19T06:00:21;9.70;;;6.27;;
21558;SDS011;10940;48.890;8.240;2022-08-19T06:02:48;6.30;;;5.33;;
21558;SDS011;10940;48.890;8.240;2022-08-19T06:05:13;7.83;;;5.83;;
21558;SDS011;10940;48.890;8.240;2022-08-19T06:07:39;9.73;;;6.00;;
21558;SDS011;10940;48.890;8.240;2022-08-19T06:10:06;9.90;;;5.50;;
21558;SDS011;10940;48.890;8.240;2022-08-19T06:12:33;8.53;;;6.03;;
21558;SDS011;10940;48.890;8.240;2022-08-19T06:15:00;6.70;;;6.00;;
21558;SDS011;10940;48.890;8.240;2022-08-19T06:17:29;5.93;;;5.03;;
21558;SDS011;10940;48.890;8.240;2022-08-19T06:19:55;9.50;;;4.83;;
21558;SDS011;10940;48.890;8.240;2022-08-19T06:22:21;7.83;;;5.33;;
21558;SDS011;10940;48.890;8.240;2022-08-19T06:24:47;7.70;;;6.73;;
21558;SDS011;10940;48.890;8.240;2022-08-19T06:27:17;7.37;;;5.73;;
21558;SDS011;10940;48.890;8.240;2022-08-19T06:29:43;7.87;;;5.63;;
21558;SDS011;10940;48.890;8.240;2022-08-19T06:32:09;6.90;;;5.00;;
21558;SDS011;10940;48.890;8.240;2022-08-19T06:34:36;9.77;;;5.70;;
21558;SDS011;10940;48.890;8.240;2022-08-19T06:37:02;9.13;;;5.40;;
21558;SDS011;10940;48.890;8.240;2022-08-19T06:39:29;7.93;;;5.53;;
21558;SDS011;10940;48.890;8.240;2022-08-19T06:41:58;8.83;;;4.87;;
21558;SDS011;10940;48.890;8.240;2022-08-19T06:44:26;7.47;;;5.73;;
21558;SDS011;10940;48.890;8.240;2022-08-19T06:46:54;11.63;;;4.73;;
21558;SDS011;10940;48.890;8.240;2022-08-19T06:49:21;8.43;;;5.70;;
21558;SDS011;10940;48.890;8.240;2022-08-19T06:51:48;6.93;;;5.93;;
21558;SDS011;10940;48.890;8.240;2022-08-19T06:54:15;8.30;;;5.97;;
21558;SDS011;10940;48.890;8.240;2022-08-19T06:56:42;5.53;;;4.87;;
21558;SDS011;10940;48.890;8.240;2022-08-19T06:59:13;6.80;;;5.97;;
21558;SDS011;10940;48.890;8.240;2022-08-19T07:01:45;8.87;;;5.93;;
21558;SDS011;10940;48.890;8.240;2022-08-19T07:04:13;9.57;;;6.23;;
21558;SDS011;10940;48.890;8.240;2022-08-19T07:06:41;8.50;;;5.67;;
21558;SDS011;10940;48.890;8.240;2022-08-19T07:09:08;6.77;;;5.53;;
21558;SDS011;10940;48.890;8.240;2022-08-19T07:11:35;6.93;;;5.40;;
21558;SDS011;10940;48.890;8.240;2022-08-19T07:14:01;7.30;;;5.30;;
21558;SDS011;10940;48.890;8.240;2022-08-19T07:16:27;6.10;;;4.43;;
21558;SDS011;10940;48.890;8.240;2022-08-19T07:18:54;7.53;;;4.77;;
21558;SDS011;10940;48.890;8.240;2022-08-19T07:21:23;9.70;;;5.43;;
21558;SDS011;10940;48.890;8.240;2022-08-19T07:23:52;8.47;;;5.73;;
21558;SDS011;10940;48.890;8.240;2022-08-19T07:26:22;6.17;;;5.27;;
21558;SDS011;10940;48.890;8.240;2022-08-19T07:28:50;7.83;;;5.20;;
21558;SDS011;10940;48.890;8.240;2022-08-19T07:31:18;6.00;;;5.40;;
21558;SDS011;10940;48.890;8.240;2022-08-19T07:33:46;6.27;;;5.10;;
21558;SDS011;10940;48.890;8.240;2022-08-19T07:36:13;6.80;;;4.73;;
21558;SDS011;10940;48.890;8.240;2022-08-19T07:38:41;7.27;;;6.10;;
21558;SDS011;10940;48.890;8.240;2022-08-19T07:41:10;11.77;;;6.23;;
21558;SDS011;10940;48.890;8.240;2022-08-19T07:43:38;7.57;;;5.80;;
21558;SDS011;10940;48.890;8.240;2022-08-19T07:46:04;6.27;;;4.63;;
21558;SDS011;10940;48.890;8.240;2022-08-19T07:48:30;7.00;;;5.20;;
21558;SDS011;10940;48.890;8.240;2022-08-19T07:50:56;8.80;;;5.80;;
21558;SDS011;10940;48.890;8.240;2022-08-19T07:53:27;9.90;;;5.50;;
21558;SDS011;10940;48.890;8.240;2022-08-19T07:55:55;10.53;;;6.40;;
21558;SDS011;10940;48.890;8.240;2022-08-19T07:58:24;5.67;;;5.07;;
21558;SDS011;10940;48.890;8.240;2022-08-19T08:00:50;5.30;;;4.80;;
21558;SDS011;10940;48.890;8.240;2022-08-19T08:03:17;6.00;;;4.97;;
21558;SDS011;10940;48.890;8.240;2022-08-19T08:05:44;7.87;;;5.87;;
21558;SDS011;10940;48.890;8.240;2022-08-19T08:08:29;12.53;;;5.40;;
21558;SDS011;10940;48.890;8.240;2022-08-19T08:11:01;10.20;;;5.03;;
21558;SDS011;10940;48.890;8.240;2022-08-19T08:13:28;6.90;;;4.37;;
21558;SDS011;10940;48.890;8.240;2022-08-19T08:15:54;7.23;;;4.90;;
21558;SDS011;10940;48.890;8.240;2022-08-19T08:18:19;5.07;;;4.40;;
21558;SDS011;10940;48.890;8.240;2022-08-19T08:20:45;5.17;;;4.27;;
21558;SDS011;10940;48.890;8.240;2022-08-19T08:23:11;5.87;;;4.83;;
21558;SDS011;10940;48.890;8.240;2022-08-19T08:25:53;7.07;;;5.53;;
21558;SDS011;10940;48.890;8.240;2022-08-19T08:28:20;7.47;;;4.77;;
21558;SDS011;10940;48.890;8.240;2022-08-19T08:30:46;8.90;;;4.70;;
21558;SDS011;10940;48.890;8.240;2022-08-19T08:33:14;7.33;;;4.03;;
21558;SDS011;10940;48.890;8.240;2022-08-19T08:35:44;6.53;;;5.50;;
21558;SDS011;10940;48.890;8.240;2022-08-19T08:38:10;11.90;;;4.67;;
21558;SDS011;10940;48.890;8.240;2022-08-19T08:40:53;5.47;;;4.40;;
21558;SDS011;10940;48.890;8.240;2022-08-19T08:43:29;5.10;;;3.80;;
21558;SDS011;10940;48.890;8.240;2022-08-19T08:46:00;6.67;;;5.00;;
21558;SDS011;10940;48.890;8.240;2022-08-19T08:48:54;8.43;;;3.83;;
21558;SDS011;10940;48.890;8.240;2022-08-19T08:51:26;5.57;;;4.30;;
21558;SDS011;10940;48.890;8.240;2022-08-19T08:53:58;6.23;;;5.13;;
21558;SDS011;10940;48.890;8.240;2022-08-19T08:56:26;4.30;;;3.90;;
21558;SDS011;10940;48.890;8.240;2022-08-19T08:59:00;6.47;;;3.87;;
21558;SDS011;10940;48.890;8.240;2022-08-19T09:01:33;3.40;;;2.90;;
21558;SDS011;10940;48.890;8.240;2022-08-19T09:03:59;5.20;;;3.70;;
21558;SDS011;10940;48.890;8.240;2022-08-19T09:14:51;6.50;;;5.27;;
21558;SDS011;10940;48.890;8.240;2022-08-19T09:17:19;3.40;;;3.10;;
21558;SDS011;10940;48.890;8.240;2022-08-19T09:19:59;4.03;;;2.63;;
21558;SDS011;10940;48.890;8.240;2022-08-19T09:22:29;4.37;;;3.93;;
21558;SDS011;10940;48.890;8.240;2022-08-19T09:24:54;5.97;;;4.13;;
21558;SDS011;10940;48.890;8.240;2022-08-19T09:27:20;3.83;;;3.27;;
21558;SDS011;10940;48.890;8.240;2022-08-19T09:29:49;5.17;;;3.63;;
21558;SDS011;10940;48.890;8.240;2022-08-19T09:32:15;3.63;;;3.17;;
21558;SDS011;10940;48.890;8.240;2022-08-19T09:34:42;4.43;;;3.43;;
21558;SDS011;10940;48.890;8.240;2022-08-19T09:37:08;3.47;;;3.10;;
21558;SDS011;10940;48.890;8.240;2022-08-19T09:39:34;7.83;;;4.00;;
21558;SDS011;10940;48.890;8.240;2022-08-19T09:41:59;4.00;;;3.60;;
21558;SDS011;10940;48.890;8.240;2022-08-19T09:44:25;3.20;;;2.90;;
21558;SDS011;10940;48.890;8.240;2022-08-19T09:46:51;3.23;;;2.93;;
21558;SDS011;10940;48.890;8.240;2022-08-19T09:49:17;2.67;;;2.47;;
21558;SDS011;10940;48.890;8.240;2022-08-19T09:51:44;2.27;;;2.07;;
21558;SDS011;10940;48.890;8.240;2022-08-19T09:54:10;3.70;;;2.13;;
21558;SDS011;10940;48.890;8.240;2022-08-19T09:56:36;3.57;;;3.27;;
21558;SDS011;10940;48.890;8.240;2022-08-19T09:59:02;4.10;;;2.30;;
21558;SDS011;10940;48.890;8.240;2022-08-19T10:01:29;2.07;;;1.73;;
21558;SDS011;10940;48.890;8.240;2022-08-19T10:03:57;5.07;;;2.33;;
21558;SDS011;10940;48.890;8.240;2022-08-19T10:06:26;2.37;;;2.13;;
21558;SDS011;10940;48.890;8.240;2022-08-19T10:08:55;2.50;;;2.10;;
21558;SDS011;10940;48.890;8.240;2022-08-19T10:11:21;3.37;;;2.93;;
21558;SDS011;10940;48.890;8.240;2022-08-19T10:13:47;3.27;;;2.10;;
21558;SDS011;10940;48.890;8.240;2022-08-19T10:16:15;3.00;;;2.20;;
21558;SDS011;10940;48.890;8.240;2022-08-19T10:18:44;1.93;;;1.83;;
21558;SDS011;10940;48.890;8.240;2022-08-19T10:21:11;2.27;;;2.07;;
21558;SDS011;10940;48.890;8.240;2022-08-19T10:23:40;5.20;;;2.50;;
21558;SDS011;10940;48.890;8.240;2022-08-19T10:26:10;1.97;;;1.80;;
21558;SDS011;10940;48.890;8.240;2022-08-19T10:28:41;3.00;;;2.40;;
21558;SDS011;10940;48.890;8.240;2022-08-19T10:31:11;2.73;;;2.33;;
21558;SDS011;10940;48.890;8.240;2022-08-19T10:33:41;2.00;;;1.80;;
21558;SDS011;10940;48.890;8.240;2022-08-19T10:36:09;2.03;;;1.93;;
21558;SDS011;10940;48.890;8.240;2022-08-19T10:38:37;2.27;;;2.07;;
21558;SDS011;10940;48.890;8.240;2022-08-19T10:41:06;2.37;;;2.17;;
21558;SDS011;10940;48.890;8.240;2022-08-19T10:43:33;2.43;;;2.23;;
21558;SDS011;10940;48.890;8.240;2022-08-19T10:46:01;2.43;;;2.23;;
21558;SDS011;10940;48.890;8.240;2022-08-19T10:48:28;3.00;;;2.70;;
21558;SDS011;10940;48.890;8.240;2022-08-19T10:50:54;1.77;;;1.67;;
21558;SDS011;10940;48.890;8.240;2022-08-19T10:53:41;2.47;;;2.27;;
21558;SDS011;10940;48.890;8.240;2022-08-19T10:56:07;3.23;;;2.90;;
21558;SDS011;10940;48.890;8.240;2022-08-19T10:58:51;3.20;;;2.60;;
21558;SDS011;10940;48.890;8.240;2022-08-19T11:01:17;2.83;;;2.50;;
21558;SDS011;10940;48.890;8.240;2022-08-19T11:03:43;2.33;;;2.13;;
21558;SDS011;10940;48.890;8.240;2022-08-19T11:06:10;1.83;;;1.73;;
21558;SDS011;10940;48.890;8.240;2022-08-19T11:08:36;11.27;;;1.83;;
21558;SDS011;10940;48.890;8.240;2022-08-19T11:11:02;3.53;;;3.03;;
21558;SDS011;10940;48.890;8.240;2022-08-19T11:13:29;6.13;;;3.40;;
21558;SDS011;10940;48.890;8.240;2022-08-19T11:16:04;1.97;;;1.87;;
21558;SDS011;10940;48.890;8.240;2022-08-19T11:18:33;2.67;;;2.40;;
21558;SDS011;10940;48.890;8.240;2022-08-19T11:21:15;2.80;;;2.60;;
21558;SDS011;10940;48.890;8.240;2022-08-19T11:23:42;2.77;;;2.57;;
21558;SDS011;10940;48.890;8.240;2022-08-19T11:26:08;7.53;;;3.17;;
21558;SDS011;10940;48.890;8.240;2022-08-19T11:28:36;2.80;;;2.60;;
21558;SDS011;10940;48.890;8.240;2022-08-19T11:31:02;3.67;;;2.93;;
21558;SDS011;10940;48.890;8.240;2022-08-19T11:33:30;3.07;;;2.77;;
21558;SDS011;10940;48.890;8.240;2022-08-19T11:35:58;3.17;;;2.77;;
21558;SDS011;10940;48.890;8.240;2022-08-19T11:38:24;5.47;;;2.57;;
21558;SDS011;10940;48.890;8.240;2022-08-19T11:40:54;3.27;;;2.97;;
21558;SDS011;10940;48.890;8.240;2022-08-19T11:43:23;3.73;;;3.23;;
21558;SDS011;10940;48.890;8.240;2022-08-19T11:45:51;3.23;;;2.90;;
21558;SDS011;10940;48.890;8.240;2022-08-19T11:48:17;3.90;;;2.90;;
21558;SDS011;10940;48.890;8.240;2022-08-19T11:50:47;4.13;;;3.20;;
21558;SDS011;10940;48.890;8.240;2022-08-19T11:53:14;2.63;;;2.30;;
21558;SDS011;10940;48.890;8.240;2022-08-19T11:55:40;2.60;;;2.40;;
21558;SDS011;10940;48.890;8.240;2022-08-19T11:58:07;2.90;;;2.43;;
21558;SDS011;10940;48.890;8.240;2022-08-19T12:00:33;2.57;;;2.37;;
21558;SDS011;10940;48.890;8.240;2022-08-19T12:03:01;4.27;;;2.43;;
21558;SDS011;10940;48.890;8.240;2022-08-19T12:05:27;4.20;;;3.80;;
21558;SDS011;10940;48.890;8.240;2022-08-19T12:07:53;3.03;;;2.45;;
21558;SDS011;10940;48.890;8.240;2022-08-19T12:10:19;3.38;;;3.08;;
21558;SDS011;10940;48.890;8.240;2022-08-19T12:12:45;3.17;;;2.67;;
21558;SDS011;10940;48.890;8.240;2022-08-19T12:15:11;3.40;;;3.10;;
21558;SDS011;10940;48.890;8.240;2022-08-19T12:17:39;3.60;;;2.77;;
21558;SDS011;10940;48.890;8.240;2022-08-19T12:20:06;4.23;;;3.20;;
21558;SDS011;10940;48.890;8.240;2022-08-19T12:22:34;4.43;;;3.70;;
21558;SDS011;10940;48.890;8.240;2022-08-19T12:25:00;4.07;;;3.27;;
21558;SDS011;10940;48.890;8.240;2022-08-19T12:27:26;3.50;;;3.20;;
21558;SDS011;10940;48.890;8.240;2022-08-19T12:29:51;2.90;;;2.63;;
21558;SDS011;10940;48.890;8.240;2022-08-19T12:32:17;5.07;;;3.30;;
21558;SDS011;10940;48.890;8.240;2022-08-19T12:34:43;3.73;;;3.27;;
21558;SDS011;10940;48.890;8.240;2022-08-19T12:37:09;3.80;;;2.93;;
21558;SDS011;10940;48.890;8.240;2022-08-19T12:39:39;3.43;;;3.00;;
21558;SDS011;10940;48.890;8.240;2022-08-19T12:42:07;2.83;;;2.63;;
21558;SDS011;10940;48.890;8.240;2022-08-19T12:44:34;2.87;;;2.57;;
21558;SDS011;10940;48.890;8.240;2022-08-19T12:47:01;9.57;;;2.97;;
21558;SDS011;10940;48.890;8.240;2022-08-19T12:49:28;2.57;;;2.37;;
21558;SDS011;10940;48.890;8.240;2022-08-19T12:51:54;3.30;;;2.43;;
21558;SDS011;10940;48.890;8.240;2022-08-19T12:54:20;2.73;;;2.43;;
21558;SDS011;10940;48.890;8.240;2022-08-19T12:56:46;2.87;;;2.40;;
21558;SDS011;10940;48.890;8.240;2022-08-19T12:59:11;5.30;;;2.27;;
21558;SDS011;10940;48.890;8.240;2022-08-19T13:01:37;4.57;;;3.00;;
21558;SDS011;10940;48.890;8.240;2022-08-19T13:04:03;4.10;;;1.77;;
21558;SDS011;10940;48.890;8.240;2022-08-19T13:06:28;3.13;;;2.43;;
21558;SDS011;10940;48.890;8.240;2022-08-19T13:08:55;2.57;;;1.63;;
21558;SDS011;10940;48.890;8.240;2022-08-19T13:11:21;2.80;;;2.10;;
21558;SDS011;10940;48.890;8.240;2022-08-19T13:13:49;2.57;;;2.33;;
21558;SDS011;10940;48.890;8.240;2022-08-19T13:16:16;1.67;;;1.50;;
21558;SDS011;10940;48.890;8.240;2022-08-19T13:18:43;1.90;;;1.70;;
21558;SDS011;10940;48.890;8.240;2022-08-19T13:21:12;3.10;;;2.17;;
21558;SDS011;10940;48.890;8.240;2022-08-19T13:23:38;1.90;;;1.70;;
21558;SDS011;10940;48.890;8.240;2022-08-19T13:26:05;1.77;;;1.50;;
21558;SDS011;10940;48.890;8.240;2022-08-19T13:28:33;1.30;;;1.20;;
21558;SDS011;10940;48.890;8.240;2022-08-19T13:31:19;1.87;;;1.67;;
21558;SDS011;10940;48.890;8.240;2022-08-19T13:34:05;1.30;;;1.20;;
21558;SDS011;10940;48.890;8.240;2022-08-19T13:36:32;2.17;;;1.87;;
21558;SDS011;10940;48.890;8.240;2022-08-19T13:38:58;2.43;;;1.73;;
21558;SDS011;10940;48.890;8.240;2022-08-19T13:41:24;2.07;;;1.87;;
21558;SDS011;10940;48.890;8.240;2022-08-19T13:43:50;2.20;;;1.80;;
21558;SDS011;10940;48.890;8.240;2022-08-19T13:46:16;2.40;;;1.87;;
21558;SDS011;10940;48.890;8.240;2022-08-19T13:48:41;1.50;;;1.40;;
21558;SDS011;10940;48.890;8.240;2022-08-19T13:51:07;2.13;;;1.97;;
21558;SDS011;10940;48.890;8.240;2022-08-19T13:53:37;2.83;;;1.60;;
21558;SDS011;10940;48.890;8.240;2022-08-19T13:56:09;8.80;;;2.33;;
21558;SDS011;10940;48.890;8.240;2022-08-19T13:58:36;2.30;;;2.10;;
21558;SDS011;10940;48.890;8.240;2022-08-19T14:01:03;1.80;;;1.70;;
21558;SDS011;10940;48.890;8.240;2022-08-19T14:03:30;4.37;;;2.23;;
21558;SDS011;10940;48.890;8.240;2022-08-19T14:05:56;2.03;;;1.93;;
21558;SDS011;10940;48.890;8.240;2022-08-19T14:08:22;1.50;;;1.40;;
21558;SDS011;10940;48.890;8.240;2022-08-19T14:10:48;3.30;;;2.10;;
21558;SDS011;10940;48.890;8.240;2022-08-19T14:13:16;4.50;;;1.73;;
21558;SDS011;10940;48.890;8.240;2022-08-19T14:15:45;2.33;;;1.80;;
21558;SDS011;10940;48.890;8.240;2022-08-19T14:18:11;1.87;;;1.77;;
21558;SDS011;10940;48.890;8.240;2022-08-19T14:20:37;1.57;;;1.47;;
21558;SDS011;10940;48.890;8.240;2022-08-19T14:23:03;2.00;;;1.80;;
21558;SDS011;10940;48.890;8.240;2022-08-19T14:25:31;6.30;;;2.23;;
21558;SDS011;10940;48.890;8.240;2022-08-19T14:27:57;3.27;;;2.03;;
21558;SDS011;10940;48.890;8.240;2022-08-19T14:30:24;2.43;;;2.23;;
21558;SDS011;10940;48.890;8.240;2022-08-19T14:32:53;1.70;;;1.60;;
21558;SDS011;10940;48.890;8.240;2022-08-19T14:35:19;1.83;;;1.73;;
21558;SDS011;10940;48.890;8.240;2022-08-19T14:37:47;2.27;;;1.93;;
21558;SDS011;10940;48.890;8.240;2022-08-19T14:40:17;1.53;;;1.43;;
21558;SDS011;10940;48.890;8.240;2022-08-19T14:42:50;2.33;;;2.13;;
21558;SDS011;10940;48.890;8.240;2022-08-19T14:45:16;1.77;;;1.63;;
21558;SDS011;10940;48.890;8.240;2022-08-19T14:47:42;1.70;;;1.60;;
21558;SDS011;10940;48.890;8.240;2022-08-19T14:50:08;2.30;;;1.87;;
21558;SDS011;10940;48.890;8.240;2022-08-19T14:52:36;2.30;;;1.73;;
21558;SDS011;10940;48.890;8.240;2022-08-19T14:55:02;1.90;;;1.77;;
21558;SDS011;10940;48.890;8.240;2022-08-19T14:57:29;3.17;;;1.93;;
21558;SDS011;10940;48.890;8.240;2022-08-19T14:59:54;2.00;;;1.53;;
21558;SDS011;10940;48.890;8.240;2022-08-19T15:02:21;1.93;;;1.83;;